Time;durP1;ratioP1;P1;durP2;ratioP2;P2;SDS_P1;SDS_P2;PMS_P1;PMS_P2;Temp;Humidity;BMP_temperature;BMP_pressure;BME280_temperature;BME280_humidity;BME280_pressure;Samples;Min_cycle;Max_cycle;Signal;HPM_P1;HPM_P2
2021/09/26 00:01:48;;;;;;;6.43;5.82;;;;;;;16.74;70.65;95708.47;6189553;23;20169;-77
2021/09/26 00:04:13;;;;;;;6.25;5.65;;;;;;;16.64;71.28;95706.09;6187253;23;20151;-78
2021/09/26 00:06:39;;;;;;;5.95;5.35;;;;;;;16.67;71.42;95710.97;6164260;23;20182;-77
2021/09/26 00:09:05;;;;;;;6.43;5.72;;;;;;;16.76;71.38;95709.09;6189475;23;20504;-77
2021/09/26 00:11:31;;;;;;;7.20;6.43;;;;;;;16.77;71.22;95708.09;6190066;23;20155;-77
2021/09/26 00:13:57;;;;;;;7.05;5.85;;;;;;;16.64;71.45;95690.34;6164279;23;20186;-77
2021/09/26 00:16:22;;;;;;;7.82;6.43;;;;;;;16.55;71.95;95694.06;6163946;23;20181;-77
2021/09/26 00:18:48;;;;;;;8.07;6.80;;;;;;;16.43;71.87;95691.09;6188881;23;20699;-78
2021/09/26 00:21:15;;;;;;;7.70;6.60;;;;;;;16.35;72.36;95688.56;6164551;23;20225;-77
2021/09/26 00:23:40;;;;;;;7.88;6.32;;;;;;;16.28;72.54;95684.22;6163494;23;20528;-77
2021/09/26 00:26:05;;;;;;;9.23;6.55;;;;;;;16.22;73.21;95690.97;6164495;23;20243;-78
2021/09/26 00:28:31;;;;;;;6.72;5.97;;;;;;;16.13;73.77;95690.22;6188625;23;20150;-77
2021/09/26 00:30:57;;;;;;;6.60;5.95;;;;;;;16.09;74.11;95685.53;6190920;23;20159;-77
2021/09/26 00:33:22;;;;;;;5.90;5.38;;;;;;;16.00;74.60;95678.75;6189531;23;20348;-77
2021/09/26 00:35:48;;;;;;;8.25;6.45;;;;;;;15.91;74.92;95682.44;6190247;23;20147;-77
2021/09/26 00:38:13;;;;;;;8.65;6.97;;;;;;;15.89;75.10;95676.53;6192682;23;20162;-78
2021/09/26 00:40:39;;;;;;;7.65;6.22;;;;;;;15.74;76.23;95674.72;6192793;23;20166;-78
2021/09/26 00:43:05;;;;;;;8.10;6.90;;;;;;;15.97;75.81;95677.28;6193629;23;20154;-77
2021/09/26 00:45:30;;;;;;;7.90;6.57;;;;;;;15.85;76.26;95679.53;6169843;23;20177;-77
2021/09/26 00:47:56;;;;;;;6.80;6.15;;;;;;;15.62;76.83;95683.94;6171424;23;20480;-78
2021/09/26 00:50:21;;;;;;;7.95;6.55;;;;;;;15.56;77.12;95680.22;6196175;23;20178;-78
2021/09/26 00:52:47;;;;;;;11.68;7.10;;;;;;;15.49;77.20;95679.28;6196093;23;20605;-77
2021/09/26 00:55:14;;;;;;;7.90;6.65;;;;;;;15.44;77.59;95675.53;6169133;23;20170;-78
2021/09/26 00:57:44;;;;;;;8.73;6.95;;;;;;;15.42;78.10;95677.53;6195230;23;20250;-78
2021/09/26 01:00:17;;;;;;;7.35;6.57;;;;;;;15.33;78.10;95674.16;6170011;23;20501;-78
2021/09/26 01:02:42;;;;;;;7.10;6.40;;;;;;;15.37;78.21;95669.38;6170290;23;20174;-78
2021/09/26 01:05:09;;;;;;;8.13;6.78;;;;;;;15.44;78.44;95675.53;6192621;23;20151;-78
2021/09/26 01:07:43;;;;;;;8.50;7.10;;;;;;;15.44;78.52;95678.97;6194959;23;20180;-78
2021/09/26 01:10:40;;;;;;;9.10;7.18;;;;;;;15.42;78.34;95678.34;6195589;23;20203;-77
2021/09/26 01:13:09;;;;;;;8.48;6.63;;;;;;;15.51;78.21;95671.25;6197445;23;20611;-78
2021/09/26 01:15:53;;;;;;;7.72;6.60;;;;;;;15.50;78.33;95665.22;6196470;23;20158;-77
2021/09/26 01:18:46;;;;;;;6.82;6.13;;;;;;;15.49;78.37;95668.81;6196859;23;20153;-77
2021/09/26 01:21:35;;;;;;;7.00;6.30;;;;;;;15.50;78.12;95667.81;6170639;23;20147;-78
2021/09/26 01:24:19;;;;;;;9.07;6.57;;;;;;;15.42;78.73;95674.91;6195327;23;20631;-78
2021/09/26 01:27:12;;;;;;;8.68;6.75;;;;;;;15.36;79.03;95675.59;6195369;23;20182;-77
2021/09/26 01:30:15;;;;;;;10.05;7.22;;;;;;;15.38;79.27;95671.03;6196636;23;20470;-78
2021/09/26 01:32:44;;;;;;;7.85;6.13;;;;;;;15.30;79.12;95675.31;6171305;23;20210;-77
2021/09/26 01:35:10;;;;;;;7.28;6.20;;;;;;;15.34;79.46;95682.81;6195369;23;20155;-77
2021/09/26 01:37:51;;;;;;;6.80;6.20;;;;;;;15.28;79.62;95679.94;6195170;23;20739;-78
2021/09/26 01:40:32;;;;;;;10.20;6.03;;;;;;;15.14;79.84;95682.44;6195663;23;20138;-77
2021/09/26 01:43:03;;;;;;;7.30;6.53;;;;;;;15.11;80.01;95674.97;6170010;23;20143;-78
2021/09/26 01:45:52;;;;;;;9.23;6.57;;;;;;;15.07;80.33;95677.09;6169842;23;20234;-77
2021/09/26 01:48:45;;;;;;;8.50;7.40;;;;;;;15.02;80.43;95671.56;6195840;23;20165;-77
2021/09/26 01:51:11;;;;;;;8.43;5.93;;;;;;;15.02;80.74;95674.19;6195639;23;20685;-78
2021/09/26 01:53:37;;;;;;;9.40;6.35;;;;;;;14.98;80.96;95672.88;6169703;23;20292;-77
2021/09/26 01:56:04;;;;;;;8.02;6.72;;;;;;;14.99;81.13;95672.72;6197157;23;20217;-78
2021/09/26 01:58:29;;;;;;;9.63;6.97;;;;;;;14.94;80.96;95677.66;6195854;23;20205;-77
2021/09/26 02:00:54;;;;;;;8.82;6.82;;;;;;;14.89;81.29;95687.00;6196206;23;20155;-78
2021/09/26 02:03:20;;;;;;;11.30;7.68;;;;;;;14.84;81.51;95692.75;6195718;23;20147;-78
2021/09/26 02:05:45;;;;;;;10.63;7.00;;;;;;;14.95;81.25;95687.13;6169365;23;20210;-78
2021/09/26 02:08:11;;;;;;;10.20;7.03;;;;;;;15.03;81.46;95688.91;6196239;23;20213;-78
2021/09/26 02:10:37;;;;;;;7.53;6.70;;;;;;;14.93;81.51;95689.09;6195509;23;20161;-78
2021/09/26 02:13:05;;;;;;;9.50;6.45;;;;;;;14.88;81.91;95680.94;6195252;23;20257;-78
2021/09/26 02:15:30;;;;;;;11.23;6.70;;;;;;;14.85;81.92;95694.38;6194480;23;20157;-78
2021/09/26 02:17:56;;;;;;;8.90;6.50;;;;;;;14.80;82.12;95691.44;6195318;23;20159;-79
2021/09/26 02:20:23;;;;;;;9.35;6.70;;;;;;;14.79;82.57;95681.97;6196124;23;20151;-78
2021/09/26 02:22:49;;;;;;;7.30;6.57;;;;;;;14.90;82.64;95673.75;6196514;23;20208;-78
2021/09/26 02:25:17;;;;;;;8.98;6.28;;;;;;;15.00;82.84;95678.75;6169667;23;20155;-78
2021/09/26 02:27:42;;;;;;;10.80;7.05;;;;;;;14.90;82.58;95676.34;6195103;23;20177;-78
2021/09/26 02:30:09;;;;;;;9.25;6.68;;;;;;;14.96;82.79;95677.47;6170871;23;20174;-77
2021/09/26 02:32:34;;;;;;;9.55;6.53;;;;;;;14.97;82.99;95684.34;6198002;23;20178;-78
2021/09/26 02:35:00;;;;;;;10.15;6.97;;;;;;;14.86;83.15;95680.31;6167153;23;20675;-77
2021/09/26 02:37:25;;;;;;;9.75;7.40;;;;;;;14.87;83.57;95681.94;6189326;23;20236;-77
2021/09/26 02:39:51;;;;;;;7.50;6.70;;;;;;;14.81;83.56;95687.03;6164404;23;20218;-77
2021/09/26 02:42:38;;;;;;;8.85;6.45;;;;;;;14.77;83.74;95678.72;6189759;23;20155;-77
2021/09/26 02:45:09;;;;;;;10.57;6.82;;;;;;;14.77;83.68;95675.28;6188968;23;20141;-77
2021/09/26 02:47:59;;;;;;;10.38;6.97;;;;;;;14.73;84.08;95657.31;6191891;23;20175;-77
2021/09/26 02:50:24;;;;;;;9.33;6.93;;;;;;;14.67;84.21;95660.63;6180580;23;20154;-77
2021/09/26 02:52:50;;;;;;;7.03;5.93;;;;;;;14.64;84.37;95655.72;6164426;23;20181;-77
2021/09/26 02:55:16;;;;;;;7.88;6.30;;;;;;;14.59;84.78;95649.41;6188346;23;20235;-78
2021/09/26 02:57:42;;;;;;;7.97;6.55;;;;;;;14.57;84.57;95656.56;6164364;23;20545;-78
2021/09/26 03:00:08;;;;;;;9.23;6.03;;;;;;;14.66;84.69;95650.31;6189972;23;20167;-77
2021/09/26 03:02:34;;;;;;;7.53;5.87;;;;;;;14.59;84.68;95654.63;6164947;23;20174;-77
2021/09/26 03:04:59;;;;;;;8.90;6.00;;;;;;;14.56;85.05;95649.72;6186988;23;20182;-77
2021/09/26 03:07:25;;;;;;;7.83;6.33;;;;;;;14.51;85.18;95645.00;6188715;23;20334;-77
2021/09/26 03:09:50;;;;;;;10.33;5.93;;;;;;;14.49;85.29;95654.81;6188506;23;20161;-78
2021/09/26 03:12:18;;;;;;;7.67;5.97;;;;;;;14.49;85.37;95654.81;6190645;23;20205;-76
2021/09/26 03:14:44;;;;;;;7.80;6.13;;;;;;;14.54;85.64;95647.28;6163482;23;20194;-77
2021/09/26 03:17:09;;;;;;;10.30;6.17;;;;;;;14.56;85.63;95660.16;6188869;23;20174;-77
2021/09/26 03:19:35;;;;;;;8.97;6.07;;;;;;;14.62;85.67;95667.34;6190399;23;20165;-77
2021/09/26 03:22:04;;;;;;;7.03;5.93;;;;;;;14.61;85.55;95663.91;6164748;23;20170;-77
2021/09/26 03:24:30;;;;;;;9.07;6.40;;;;;;;14.63;85.85;95651.47;6162635;23;20182;-77
2021/09/26 03:26:56;;;;;;;9.67;5.90;;;;;;;14.65;85.95;95644.28;6163596;23;20178;-77
2021/09/26 03:29:21;;;;;;;6.90;5.28;;;;;;;14.63;85.78;95641.03;6188467;23;20154;-77
2021/09/26 03:31:46;;;;;;;7.63;6.63;;;;;;;14.61;85.64;95642.19;6186633;23;20174;-77
2021/09/26 03:34:12;;;;;;;8.75;5.90;;;;;;;14.57;85.82;95657.38;6189409;23;20198;-78
2021/09/26 03:36:37;;;;;;;9.93;6.60;;;;;;;14.53;86.03;95663.13;6192301;23;20174;-78
2021/09/26 03:39:03;;;;;;;10.38;6.70;;;;;;;14.47;86.44;95666.41;6192633;23;20158;-78
2021/09/26 03:41:28;;;;;;;8.45;6.07;;;;;;;14.45;86.58;95663.97;6190986;23;20166;-78
2021/09/26 03:43:53;;;;;;;8.90;6.43;;;;;;;14.28;86.85;95657.94;6190675;23;20158;-78
2021/09/26 03:46:19;;;;;;;8.03;6.63;;;;;;;14.20;87.01;95660.56;6194157;23;20181;-78
2021/09/26 03:48:44;;;;;;;10.50;7.23;;;;;;;14.11;87.19;95656.34;6191885;23;20609;-77
2021/09/26 03:51:09;;;;;;;7.82;6.28;;;;;;;14.04;87.17;95656.19;6191261;23;20209;-78
2021/09/26 03:53:35;;;;;;;11.88;6.75;;;;;;;13.98;87.26;95659.50;6191547;23;20174;-78
2021/09/26 03:56:00;;;;;;;8.18;6.90;;;;;;;13.95;87.59;95651.97;6193157;23;20246;-78
2021/09/26 03:58:25;;;;;;;12.23;6.87;;;;;;;13.93;87.74;95658.34;6194049;23;20170;-79
2021/09/26 04:00:51;;;;;;;8.77;6.00;;;;;;;13.91;87.88;95653.28;6194568;23;20158;-78
2021/09/26 04:03:16;;;;;;;14.33;6.50;;;;;;;13.88;88.23;95646.63;6169337;23;20163;-78
2021/09/26 04:05:41;;;;;;;9.52;6.63;;;;;;;13.85;87.78;95646.94;6192424;23;20230;-78
2021/09/26 04:08:07;;;;;;;10.60;6.63;;;;;;;13.82;88.01;95638.63;6193528;23;20198;-78
2021/09/26 04:10:32;;;;;;;10.65;6.90;;;;;;;13.82;88.16;95649.06;6194274;23;20150;-78
2021/09/26 04:12:57;;;;;;;9.37;7.20;;;;;;;13.82;88.16;95636.81;6193838;23;20404;-78
2021/09/26 04:15:22;;;;;;;10.27;6.97;;;;;;;13.85;88.40;95641.72;6194789;23;20161;-78
2021/09/26 04:17:48;;;;;;;9.38;6.85;;;;;;;13.92;88.62;95638.44;6194448;23;20228;-79
2021/09/26 04:20:13;;;;;;;11.13;5.93;;;;;;;14.01;88.94;95635.66;6170970;23;20237;-78
2021/09/26 04:22:38;;;;;;;11.17;6.40;;;;;;;14.06;88.77;95635.16;6196343;23;20151;-77
2021/09/26 04:25:05;;;;;;;9.70;6.68;;;;;;;14.20;88.67;95628.41;6169822;23;20209;-78
2021/09/26 04:27:30;;;;;;;10.43;6.45;;;;;;;14.25;88.72;95632.16;6196355;23;20197;-78
2021/09/26 04:29:56;;;;;;;8.13;6.13;;;;;;;14.29;88.68;95630.84;6170868;23;20616;-78
2021/09/26 04:32:22;;;;;;;8.40;6.88;;;;;;;14.37;88.96;95630.81;6170964;23;20155;-79
2021/09/26 04:34:48;;;;;;;7.63;6.13;;;;;;;14.43;88.84;95626.72;6193913;23;20257;-78
2021/09/26 04:37:13;;;;;;;10.52;7.15;;;;;;;14.41;88.68;95631.31;6192721;23;20170;-78
2021/09/26 04:39:39;;;;;;;9.18;6.18;;;;;;;14.42;88.85;95618.06;6194079;23;20147;-78
2021/09/26 04:42:05;;;;;;;9.27;6.50;;;;;;;14.39;88.77;95609.75;6195811;23;20170;-78
2021/09/26 04:44:30;;;;;;;8.40;6.47;;;;;;;14.35;88.54;95618.91;6193548;23;20154;-77
2021/09/26 04:46:56;;;;;;;12.83;6.47;;;;;;;14.30;88.79;95619.41;6194961;23;20206;-78
2021/09/26 04:49:27;;;;;;;11.50;6.57;;;;;;;14.40;88.73;95620.03;6195304;23;20208;-78
2021/09/26 04:51:53;;;;;;;9.47;6.47;;;;;;;14.39;88.71;95618.38;6196071;23;20230;-78
2021/09/26 04:54:18;;;;;;;10.30;7.43;;;;;;;14.42;88.95;95619.88;6192723;23;20262;-78
2021/09/26 04:56:43;;;;;;;10.52;6.43;;;;;;;14.55;88.47;95620.16;6192688;23;20643;-78
2021/09/26 04:59:09;;;;;;;12.13;6.60;;;;;;;14.66;88.48;95627.63;6194062;23;20158;-78
2021/09/26 05:01:34;;;;;;;10.10;6.93;;;;;;;14.61;88.60;95623.91;6168825;23;20170;-78
2021/09/26 05:03:59;;;;;;;11.30;6.50;;;;;;;14.56;88.41;95629.63;6192079;23;20150;-78
2021/09/26 05:06:24;;;;;;;15.52;6.70;;;;;;;14.58;88.29;95629.47;6167792;23;20516;-77
2021/09/26 05:08:50;;;;;;;9.55;7.13;;;;;;;14.54;88.64;95625.56;6194931;23;20151;-79
2021/09/26 05:11:15;;;;;;;11.93;6.93;;;;;;;14.53;88.20;95626.53;6170979;23;20162;-78
2021/09/26 05:13:40;;;;;;;10.47;6.47;;;;;;;14.45;88.19;95625.59;6169586;23;20182;-78
2021/09/26 05:16:06;;;;;;;13.48;7.95;;;;;;;14.44;88.48;95631.78;6194935;23;20194;-78
2021/09/26 05:18:31;;;;;;;10.07;6.60;;;;;;;14.47;88.64;95641.09;6194664;23;20185;-79
2021/09/26 05:20:56;;;;;;;9.98;7.53;;;;;;;14.38;88.88;95642.88;6196464;23;20151;-78
2021/09/26 05:23:22;;;;;;;9.15;7.10;;;;;;;14.35;88.86;95643.22;6169256;23;20155;-78
2021/09/26 05:25:48;;;;;;;9.60;6.60;;;;;;;14.28;88.88;95636.22;6185369;23;20154;-78
2021/09/26 05:28:13;;;;;;;11.50;6.90;;;;;;;14.28;89.05;95626.59;6160535;23;20598;-78
2021/09/26 05:30:38;;;;;;;8.23;7.37;;;;;;;14.18;89.19;95631.19;6185717;23;20226;-78
2021/09/26 05:33:04;;;;;;;11.77;8.00;;;;;;;14.18;89.38;95636.44;6187079;23;20158;-78
2021/09/26 05:35:29;;;;;;;11.00;7.63;;;;;;;14.20;89.12;95644.91;6185108;23;20161;-78
2021/09/26 05:37:56;;;;;;;13.57;6.70;;;;;;;14.23;89.17;95641.97;6184008;23;20186;-79
2021/09/26 05:40:22;;;;;;;11.52;7.57;;;;;;;14.14;89.33;95635.97;6161755;23;20159;-78
2021/09/26 05:42:47;;;;;;;13.23;7.47;;;;;;;14.30;89.34;95642.91;6160959;23;20197;-78
2021/09/26 05:45:12;;;;;;;10.07;7.13;;;;;;;14.25;89.19;95645.22;6162687;23;20457;-79
2021/09/26 05:47:37;;;;;;;12.30;6.93;;;;;;;14.23;88.86;95649.00;6189100;23;20174;-79
2021/09/26 05:50:04;;;;;;;11.23;7.97;;;;;;;14.25;89.24;95647.84;6188029;23;20165;-79
2021/09/26 05:52:29;;;;;;;15.77;7.47;;;;;;;14.27;88.80;95642.44;6186672;23;20167;-79
2021/09/26 05:54:54;;;;;;;12.13;7.33;;;;;;;14.28;89.00;95639.66;6185687;23;20232;-80
2021/09/26 05:57:20;;;;;;;10.60;6.87;;;;;;;14.35;88.87;95627.56;6183339;23;20204;-78
2021/09/26 05:59:45;;;;;;;11.77;7.30;;;;;;;14.55;88.42;95627.19;6183244;23;20605;-77
2021/09/26 06:02:10;;;;;;;8.77;7.00;;;;;;;14.58;88.36;95632.09;6184747;23;20158;-79
2021/09/26 06:04:36;;;;;;;9.00;6.20;;;;;;;14.59;87.70;95641.56;6189076;23;20173;-80
2021/09/26 06:07:02;;;;;;;10.47;7.43;;;;;;;14.75;87.88;95646.69;6190587;23;20166;-79
2021/09/26 06:09:28;;;;;;;8.80;7.33;;;;;;;14.83;87.68;95646.66;6158026;23;20282;-77
2021/09/26 06:11:54;;;;;;;10.02;7.15;;;;;;;14.95;87.52;95650.53;6182862;23;20274;-77
2021/09/26 06:14:19;;;;;;;12.17;7.77;;;;;;;15.00;87.09;95658.66;6181074;23;20505;-77
2021/09/26 06:16:44;;;;;;;12.48;7.95;;;;;;;15.14;86.70;95659.72;6182833;23;20225;-77
2021/09/26 06:19:10;;;;;;;10.80;7.23;;;;;;;15.28;86.48;95661.59;6182651;23;20555;-76
2021/09/26 06:21:35;;;;;;;9.88;6.82;;;;;;;15.41;85.97;95657.59;6182696;23;20628;-77
2021/09/26 06:24:00;;;;;;;9.27;6.72;;;;;;;15.43;85.68;95656.41;6181566;23;20186;-78
2021/09/26 06:26:25;;;;;;;10.88;6.80;;;;;;;15.57;85.55;95666.13;6182747;23;20260;-77
2021/09/26 06:28:54;;;;;;;11.95;6.93;;;;;;;15.67;85.15;95660.69;6186886;23;20241;-79
2021/09/26 06:31:19;;;;;;;12.55;6.78;;;;;;;15.72;84.67;95662.78;6189043;23;20549;-77
2021/09/26 06:33:45;;;;;;;11.68;7.30;;;;;;;15.69;85.08;95663.94;6185724;23;20163;-77
2021/09/26 06:36:11;;;;;;;8.07;6.88;;;;;;;15.87;84.24;95661.00;6188073;23;20224;-78
2021/09/26 06:38:36;;;;;;;8.88;5.93;;;;;;;15.75;84.13;95667.66;6165156;23;20178;-78
2021/09/26 06:41:02;;;;;;;9.15;6.93;;;;;;;15.71;84.21;95675.03;6188648;23;20150;-79
2021/09/26 06:43:27;;;;;;;8.75;6.72;;;;;;;15.81;83.71;95685.28;6189759;23;20147;-79
2021/09/26 06:45:52;;;;;;;8.32;6.47;;;;;;;15.83;83.76;95688.56;6162837;23;20183;-78
2021/09/26 06:48:17;;;;;;;9.07;6.70;;;;;;;15.87;83.93;95692.44;6188833;23;20511;-79
2021/09/26 06:50:45;;;;;;;11.20;6.38;;;;;;;16.09;83.51;95691.59;6189001;23;20158;-79
2021/09/26 06:53:10;;;;;;;10.15;6.10;;;;;;;16.33;82.77;95701.00;6188833;23;20577;-78
2021/09/26 06:55:36;;;;;;;7.55;6.70;;;;;;;16.47;82.94;95704.63;6188066;23;20182;-79
2021/09/26 06:58:01;;;;;;;9.27;6.65;;;;;;;16.60;82.48;95699.56;6188902;23;20155;-78
2021/09/26 07:00:26;;;;;;;8.23;6.32;;;;;;;16.72;81.80;95702.59;6190532;23;20604;-78
2021/09/26 07:02:52;;;;;;;8.63;6.35;;;;;;;16.86;81.52;95719.31;6188944;23;20668;-78
2021/09/26 07:05:18;;;;;;;9.55;6.30;;;;;;;17.05;79.89;95720.53;6162920;23;20540;-79
2021/09/26 07:07:45;;;;;;;8.82;6.63;;;;;;;17.12;80.64;95718.81;6157569;23;20174;-80
2021/09/26 07:10:12;;;;;;;9.93;6.97;;;;;;;17.21;80.74;95715.91;6180999;23;20186;-79
2021/09/26 07:12:37;;;;;;;11.40;6.50;;;;;;;17.44;79.50;95715.78;6183996;23;20151;-78
2021/09/26 07:15:03;;;;;;;8.77;6.05;;;;;;;17.65;78.39;95712.34;6181740;23;20225;-79
2021/09/26 07:17:29;;;;;;;8.15;5.68;;;;;;;17.75;79.16;95719.94;6158567;23;20224;-80
2021/09/26 07:19:54;;;;;;;8.30;6.22;;;;;;;17.82;78.15;95719.00;6181889;23;20177;-80
2021/09/26 07:22:23;;;;;;;7.38;6.13;;;;;;;18.05;77.18;95723.25;6181851;23;20585;-80
2021/09/26 07:24:51;;;;;;;7.68;6.20;;;;;;;18.30;76.76;95716.56;6180951;23;20495;-80
2021/09/26 07:27:18;;;;;;;13.30;6.43;;;;;;;18.52;76.20;95727.84;6181929;23;20503;-81
2021/09/26 07:29:44;;;;;;;7.15;6.07;;;;;;;18.60;76.52;95727.69;6181060;23;20224;-81
2021/09/26 07:32:09;;;;;;;8.02;6.07;;;;;;;18.71;75.78;95730.81;6157568;23;20584;-78
2021/09/26 07:34:35;;;;;;;11.55;6.13;;;;;;;18.63;75.70;95743.06;6157174;23;20616;-80
2021/09/26 07:37:00;;;;;;;9.43;6.20;;;;;;;18.64;75.48;95746.53;6181832;23;20221;-77
2021/09/26 07:39:25;;;;;;;10.10;5.75;;;;;;;18.55;75.17;95750.31;6157512;23;20154;-81
2021/09/26 07:41:50;;;;;;;10.88;5.75;;;;;;;18.43;75.59;95755.28;6180557;23;20166;-79
2021/09/26 07:44:16;;;;;;;9.55;6.95;;;;;;;18.29;76.12;95751.75;6180494;23;20738;-79
2021/09/26 07:46:44;;;;;;;9.00;6.45;;;;;;;18.23;75.32;95760.41;6180861;23;20197;-79
2021/09/26 07:49:09;;;;;;;6.63;5.93;;;;;;;18.17;76.06;95776.91;6157565;23;20163;-80
2021/09/26 07:51:34;;;;;;;11.55;6.15;;;;;;;17.95;77.27;95775.31;6183339;23;20178;-79
2021/09/26 07:54:00;;;;;;;8.70;6.50;;;;;;;17.76;78.73;95782.81;6181839;23;20179;-78
2021/09/26 07:56:25;;;;;;;9.30;6.38;;;;;;;17.68;79.44;95782.88;6158015;23;20194;-78
2021/09/26 07:58:50;;;;;;;7.18;5.70;;;;;;;17.56;79.57;95790.41;6183882;23;20161;-80
2021/09/26 08:01:16;;;;;;;10.75;7.03;;;;;;;17.54;78.69;95799.47;6184563;23;20158;-80
2021/09/26 08:03:41;;;;;;;10.93;6.30;;;;;;;17.67;78.53;95798.81;6161095;23;20166;-81
2021/09/26 08:06:06;;;;;;;12.50;6.55;;;;;;;17.89;77.57;95804.94;6186872;23;20178;-80
2021/09/26 08:08:35;;;;;;;9.90;6.65;;;;;;;17.90;76.47;95811.81;6161928;23;20226;-78
2021/09/26 08:11:02;;;;;;;7.40;6.25;;;;;;;17.87;77.26;95817.47;6187375;23;20186;-79
2021/09/26 08:13:27;;;;;;;8.65;6.30;;;;;;;17.82;77.19;95823.25;6185795;23;20212;-79
2021/09/26 08:15:53;;;;;;;11.30;6.53;;;;;;;17.84;76.92;95813.38;6166172;23;20174;-79
2021/09/26 08:18:18;;;;;;;8.13;6.03;;;;;;;17.80;76.84;95815.56;6193879;23;20151;-80
2021/09/26 08:20:43;;;;;;;10.63;6.68;;;;;;;17.80;76.65;95814.75;6191533;23;20158;-79
2021/09/26 08:23:09;;;;;;;8.02;5.97;;;;;;;17.79;76.54;95807.88;6191107;23;20659;-79
2021/09/26 08:25:34;;;;;;;9.30;6.22;;;;;;;17.94;76.08;95806.03;6193583;23;20212;-79
2021/09/26 08:28:00;;;;;;;7.78;6.50;;;;;;;17.97;76.04;95796.94;6192031;23;20155;-79
2021/09/26 08:30:25;;;;;;;7.35;6.10;;;;;;;18.02;76.38;95799.81;6192264;23;20158;-80
2021/09/26 08:32:50;;;;;;;9.18;7.57;;;;;;;18.07;76.54;95798.25;6190719;23;20155;-79
2021/09/26 08:35:16;;;;;;;8.63;6.97;;;;;;;18.24;75.87;95795.38;6190311;23;20642;-79
2021/09/26 08:37:42;;;;;;;11.95;7.00;;;;;;;18.43;74.83;95793.91;6191571;23;20178;-78
2021/09/26 08:40:08;;;;;;;8.68;6.65;;;;;;;18.48;75.16;95794.16;6165817;23;20612;-80
2021/09/26 08:42:35;;;;;;;11.05;6.65;;;;;;;18.51;75.67;95801.66;6193684;23;20155;-79
2021/09/26 08:45:03;;;;;;;10.77;6.60;;;;;;;18.62;75.08;95807.22;6193507;23;20229;-79
2021/09/26 08:47:28;;;;;;;11.80;7.18;;;;;;;18.60;74.85;95800.53;6168577;23;20182;-79
2021/09/26 08:49:54;;;;;;;13.98;6.68;;;;;;;18.72;74.06;95800.81;6169674;23;20174;-78
2021/09/26 08:52:20;;;;;;;8.95;7.05;;;;;;;18.80;74.07;95803.31;6194782;23;20631;-80
2021/09/26 08:54:46;;;;;;;11.88;6.95;;;;;;;18.85;74.19;95807.00;6168441;23;20194;-79
2021/09/26 08:57:11;;;;;;;10.60;6.07;;;;;;;19.03;73.19;95805.69;6193259;23;20632;-80
2021/09/26 08:59:36;;;;;;;9.73;6.35;;;;;;;19.18;72.70;95803.78;6165480;23;20155;-81
2021/09/26 09:02:04;;;;;;;11.63;6.72;;;;;;;19.39;72.96;95811.56;6161760;23;20158;-79
2021/09/26 09:04:35;;;;;;;9.73;6.85;;;;;;;19.74;71.82;95814.97;6187482;23;20241;-79
2021/09/26 09:07:03;;;;;;;6.93;5.88;;;;;;;19.78;71.44;95831.19;6189941;23;20178;-81
2021/09/26 09:09:28;;;;;;;7.95;6.13;;;;;;;19.95;70.37;95823.72;6191367;23;20165;-79
2021/09/26 09:12:01;;;;;;;10.02;6.43;;;;;;;20.04;68.90;95838.34;6190251;23;20154;-78
2021/09/26 09:14:26;;;;;;;8.52;5.75;;;;;;;19.68;70.33;95839.47;6165053;23;20183;-80
2021/09/26 09:16:55;;;;;;;9.95;6.57;;;;;;;19.27;69.78;95833.38;6165408;23;20179;-80
2021/09/26 09:19:23;;;;;;;8.27;5.78;;;;;;;19.41;69.58;95840.31;6191028;23;20201;-80
2021/09/26 09:22:03;;;;;;;10.80;6.05;;;;;;;19.36;68.90;95826.94;6165281;23;20159;-80
2021/09/26 09:24:29;;;;;;;8.93;6.63;;;;;;;19.09;69.72;95826.81;6161715;23;20155;-79
2021/09/26 09:26:55;;;;;;;9.13;6.55;;;;;;;19.17;69.42;95828.44;6190179;23;20182;-81
2021/09/26 09:29:23;;;;;;;10.27;6.18;;;;;;;18.76;71.19;95828.41;6163987;23;20193;-75
2021/09/26 09:31:53;;;;;;;8.20;5.95;;;;;;;18.69;71.55;95823.09;6184732;23;20212;-82
2021/09/26 09:34:33;;;;;;;9.75;6.90;;;;;;;18.59;72.51;95828.63;6190863;23;20727;-79
2021/09/26 09:37:08;;;;;;;10.43;6.53;;;;;;;18.70;72.50;95816.00;6184806;23;20177;-79
2021/09/26 09:39:33;;;;;;;9.60;6.93;;;;;;;18.48;73.66;95816.00;6187028;23;20154;-80
2021/09/26 09:41:59;;;;;;;9.77;7.45;;;;;;;18.56;74.02;95815.06;6187118;23;20161;-79
2021/09/26 09:44:35;;;;;;;10.63;7.20;;;;;;;18.42;74.47;95815.97;6193212;23;20155;-79
2021/09/26 09:47:00;;;;;;;7.95;7.15;;;;;;;18.16;75.25;95817.34;6167913;23;20174;-79
2021/09/26 09:49:25;;;;;;;11.07;7.40;;;;;;;18.25;75.43;95810.97;6193936;23;20162;-79
2021/09/26 09:51:57;;;;;;;9.93;7.47;;;;;;;18.33;74.80;95810.81;6191923;23;20170;-79
2021/09/26 09:54:30;;;;;;;9.23;8.05;;;;;;;18.17;75.70;95815.53;6165694;23;20182;-79
2021/09/26 09:56:56;;;;;;;9.73;7.50;;;;;;;18.18;75.47;95807.44;6191471;23;20201;-80
2021/09/26 09:59:36;;;;;;;8.63;7.18;;;;;;;18.15;75.70;95804.41;6193103;23;20150;-78
2021/09/26 10:02:02;;;;;;;12.02;8.60;;;;;;;18.19;76.93;95803.81;6191715;23;20216;-79
2021/09/26 10:04:36;;;;;;;11.02;8.35;;;;;;;18.11;77.71;95801.34;6190477;23;20147;-80
2021/09/26 10:07:16;;;;;;;11.73;9.18;;;;;;;18.40;76.73;95798.56;6191623;23;20873;-79
2021/09/26 10:09:42;;;;;;;11.32;10.13;;;;;;;18.43;76.70;95788.66;6190271;23;20158;-79
2021/09/26 10:12:09;;;;;;;10.50;9.48;;;;;;;18.50;76.16;95789.53;6190665;23;20852;-78
2021/09/26 10:14:35;;;;;;;10.73;9.02;;;;;;;18.75;76.52;95790.75;6191927;23;20178;-79
2021/09/26 10:17:03;;;;;;;12.18;9.23;;;;;;;19.08;74.86;95785.69;6192131;23;20636;-78
2021/09/26 10:19:30;;;;;;;10.13;8.77;;;;;;;19.22;74.21;95783.94;6191604;23;20155;-78
2021/09/26 10:21:58;;;;;;;10.40;9.40;;;;;;;19.55;73.80;95791.16;6168155;23;20163;-79
2021/09/26 10:24:25;;;;;;;10.13;9.00;;;;;;;19.94;71.37;95772.84;6191283;23;20147;-79
2021/09/26 10:26:52;;;;;;;9.70;7.85;;;;;;;19.94;69.32;95775.47;6191306;23;20170;-79
2021/09/26 10:29:21;;;;;;;8.65;7.85;;;;;;;20.18;67.63;95771.47;6191742;23;20170;-79
2021/09/26 10:31:48;;;;;;;8.25;7.45;;;;;;;20.07;67.21;95770.25;6192267;23;20178;-79
2021/09/26 10:34:14;;;;;;;9.70;8.35;;;;;;;20.42;66.18;95762.16;6193712;23;20190;-79
2021/09/26 10:36:40;;;;;;;10.93;8.35;;;;;;;20.76;66.18;95769.06;6166354;23;20237;-78
2021/09/26 10:39:06;;;;;;;9.13;7.55;;;;;;;21.11;64.99;95766.91;6166297;23;20184;-79
2021/09/26 10:41:32;;;;;;;12.07;8.60;;;;;;;21.18;64.68;95783.56;6190961;23;20577;-79
2021/09/26 10:44:07;;;;;;;8.93;8.02;;;;;;;21.13;64.12;95791.31;6191428;23;20193;-79
2021/09/26 10:46:33;;;;;;;9.00;8.10;;;;;;;21.09;63.60;95790.09;6167308;23;20202;-79
2021/09/26 10:49:15;;;;;;;9.13;8.23;;;;;;;20.70;63.97;95792.81;6191477;23;20154;-79
2021/09/26 10:51:58;;;;;;;11.13;8.13;;;;;;;20.84;64.85;95804.94;6188397;23;20178;-79
2021/09/26 10:54:26;;;;;;;9.02;7.97;;;;;;;20.58;65.22;95789.94;6165467;23;20174;-78
2021/09/26 10:57:03;;;;;;;8.25;7.50;;;;;;;20.49;65.75;95791.16;6192665;23;20249;-78
2021/09/26 10:59:45;;;;;;;10.23;8.32;;;;;;;21.00;64.61;95799.25;6193289;23;20224;-79
2021/09/26 11:02:22;;;;;;;11.88;7.90;;;;;;;21.06;64.23;95806.34;6191224;23;20513;-79
2021/09/26 11:04:53;;;;;;;10.93;8.55;;;;;;;21.02;64.56;95794.56;6191041;23;20233;-80
2021/09/26 11:07:19;;;;;;;9.73;7.97;;;;;;;20.98;65.32;95797.84;6189599;23;20178;-83
2021/09/26 11:10:05;;;;;;;9.32;8.35;;;;;;;21.15;64.34;95799.81;6185649;23;20159;-81
2021/09/26 11:12:45;;;;;;;9.02;8.02;;;;;;;21.31;63.97;95797.78;6159913;23;20252;-81
2021/09/26 11:15:15;;;;;;;10.50;8.65;;;;;;;21.48;63.33;95788.38;6159362;23;20182;-81
2021/09/26 11:17:49;;;;;;;11.27;10.10;;;;;;;21.79;63.62;95787.63;6184633;23;20175;-80
2021/09/26 11:20:29;;;;;;;9.93;9.00;;;;;;;21.92;63.25;95776.97;6184299;23;20154;-81
2021/09/26 11:23:04;;;;;;;11.25;9.23;;;;;;;21.86;62.29;95780.47;6183309;23;20165;-81
2021/09/26 11:26:00;;;;;;;10.32;9.18;;;;;;;21.94;61.46;95776.75;6189955;23;20156;-79
2021/09/26 11:28:32;;;;;;;11.00;9.85;;;;;;;22.09;62.40;95779.16;6188243;23;20166;-81
2021/09/26 11:30:58;;;;;;;9.95;8.68;;;;;;;21.98;62.58;95773.47;6162429;23;20525;-79
2021/09/26 11:33:24;;;;;;;10.60;9.15;;;;;;;22.07;62.43;95768.75;6189410;23;20189;-80